createdAt,value
2017-04-29T00:00:23.638Z,0
2017-04-29T00:01:32.937Z,0
2017-04-29T00:02:43.124Z,0
2017-04-29T00:03:53.354Z,0
2017-04-29T00:05:03.596Z,0
2017-04-29T00:06:13.207Z,0
2017-04-29T00:07:22.504Z,0
2017-04-29T00:08:32.578Z,0
2017-04-29T00:09:42.870Z,0
2017-04-29T00:10:53.086Z,0
2017-04-29T00:12:02.387Z,0
2017-04-29T00:13:12.307Z,0
2017-04-29T00:14:21.767Z,0
2017-04-29T00:15:30.771Z,0
2017-04-29T00:16:40.734Z,0
2017-04-29T00:17:50.670Z,0
2017-04-29T00:19:00.277Z,0
2017-04-29T00:20:10.129Z,0
2017-04-29T00:21:19.732Z,0
2017-04-29T00:22:29.332Z,0
2017-04-29T00:23:39.249Z,0
2017-04-29T00:24:49.533Z,0
2017-04-29T00:25:59.442Z,0
2017-04-29T00:27:09.348Z,0
2017-04-29T00:28:18.955Z,0
2017-04-29T00:29:28.881Z,0
2017-04-29T00:30:38.797Z,0
2017-04-29T00:31:48.826Z,0
2017-04-29T00:32:58.749Z,0
2017-04-29T00:34:08.659Z,0
2017-04-29T00:35:18.568Z,0
2017-04-29T00:36:28.475Z,0
2017-04-29T00:37:38.545Z,0
2017-04-29T00:38:48.771Z,0
2017-04-29T00:39:58.681Z,0
2017-04-29T00:41:08.277Z,0
2017-04-29T00:42:17.568Z,0
2017-04-29T00:43:27.632Z,0
2017-04-29T00:44:37.543Z,0
2017-04-29T00:45:47.452Z,0
2017-04-29T00:46:57.686Z,0
2017-04-29T00:48:07.301Z,0
2017-04-29T00:49:17.869Z,0
2017-04-29T00:50:28.086Z,0
2017-04-29T00:51:37.993Z,0
2017-04-29T00:52:47.923Z,0
2017-04-29T00:53:57.536Z,0
2017-04-29T00:55:07.703Z,0
2017-04-29T00:56:17.613Z,0
2017-04-29T00:57:27.517Z,0
2017-04-29T00:58:37.123Z,0
2017-04-29T00:59:46.724Z,0
2017-04-29T01:00:56.625Z,0
2017-04-29T01:02:06.548Z,0
2017-04-29T01:03:16.480Z,0
2017-04-29T01:04:26.705Z,0
2017-04-29T01:05:36.919Z,0
2017-04-29T01:06:47.199Z,0
2017-04-29T01:07:57.138Z,0
2017-04-29T01:09:07.070Z,0
2017-04-29T01:10:16.977Z,0
2017-04-29T01:11:26.568Z,0
2017-04-29T01:12:36.731Z,0
2017-04-29T01:13:46.957Z,0
2017-04-29T01:14:57.192Z,0
2017-04-29T01:16:07.098Z,0
2017-04-29T01:17:17.003Z,0
2017-04-29T01:18:27.489Z,0
2017-04-29T01:19:37.089Z,0
2017-04-29T01:20:47.003Z,0
2017-04-29T01:21:56.915Z,0
2017-04-29T01:23:06.223Z,0
2017-04-29T01:24:15.977Z,0
2017-04-29T01:25:25.581Z,0
2017-04-29T01:26:35.496Z,0
2017-04-29T01:27:45.719Z,0
2017-04-29T01:28:55.025Z,0
2017-04-29T01:30:05.189Z,0
2017-04-29T01:31:15.099Z,0
2017-04-29T01:32:25.326Z,0
2017-04-29T01:33:35.555Z,0
2017-04-29T01:34:45.840Z,0
2017-04-29T01:35:56.003Z,0
2017-04-29T01:37:05.922Z,0
2017-04-29T01:38:15.524Z,0
2017-04-29T01:39:25.435Z,0
2017-04-29T01:40:35.349Z,0
2017-04-29T01:41:45.252Z,0
2017-04-29T01:42:54.872Z,0
2017-04-29T01:44:05.099Z,0
2017-04-29T01:45:14.703Z,0
2017-04-29T01:46:24.329Z,0
2017-04-29T01:47:34.040Z,0
2017-04-29T01:48:44.268Z,0
2017-04-29T01:49:53.876Z,0
2017-04-29T01:51:04.087Z,0
2017-04-29T01:52:13.994Z,0
2017-04-29T01:53:23.390Z,0
2017-04-29T01:54:33.305Z,0
2017-04-29T01:55:43.225Z,0
2017-04-29T01:56:52.833Z,0
2017-04-29T01:58:02.757Z,0
2017-04-29T01:59:13.231Z,0
2017-04-29T02:00:23.134Z,0
2017-04-29T02:01:32.432Z,0
2017-04-29T02:02:42.652Z,0
2017-04-29T02:03:52.877Z,0
2017-04-29T02:05:02.538Z,0
2017-04-29T02:06:12.753Z,0
2017-04-29T02:07:22.353Z,0
2017-04-29T02:08:31.649Z,0
2017-04-29T02:09:41.873Z,0
2017-04-29T02:10:51.894Z,0
2017-04-29T02:12:01.805Z,0
2017-04-29T02:13:11.414Z,0
2017-04-29T02:14:21.344Z,0
2017-04-29T02:15:30.646Z,0
2017-04-29T02:16:40.865Z,0
2017-04-29T02:17:51.104Z,0
2017-04-29T02:19:00.728Z,0
2017-04-29T02:20:10.643Z,0
2017-04-29T02:21:20.244Z,0
2017-04-29T02:22:30.466Z,0
2017-04-29T02:23:40.389Z,0
2017-04-29T02:24:50.299Z,0
2017-04-29T02:26:00.209Z,0
2017-04-29T02:27:10.130Z,0
2017-04-29T02:28:20.297Z,0
2017-04-29T02:29:29.906Z,0
2017-04-29T02:30:39.506Z,0
2017-04-29T02:31:49.422Z,0
2017-04-29T02:32:59.635Z,0
2017-04-29T02:34:09.657Z,0
2017-04-29T02:35:19.867Z,0
2017-04-29T02:36:29.771Z,0
2017-04-29T02:37:39.685Z,0
2017-04-29T02:38:49.283Z,0
2017-04-29T02:39:59.503Z,0
2017-04-29T02:41:09.420Z,0
2017-04-29T02:42:19.339Z,0
2017-04-29T02:43:29.259Z,0
2017-04-29T02:44:39.176Z,0
2017-04-29T02:45:49.709Z,0
2017-04-29T02:46:59.661Z,0
2017-04-29T02:48:09.574Z,0
2017-04-29T02:49:19.792Z,0
2017-04-29T02:50:29.713Z,0
2017-04-29T02:51:40.238Z,0
2017-04-29T02:52:50.477Z,0
2017-04-29T02:54:00.747Z,0
2017-04-29T02:55:10.650Z,0
2017-04-29T02:56:20.569Z,0
2017-04-29T02:57:30.321Z,0
2017-04-29T02:58:40.243Z,0
2017-04-29T02:59:49.848Z,0
2017-04-29T03:00:59.755Z,0
2017-04-29T03:02:09.358Z,0
2017-04-29T03:03:19.524Z,0
2017-04-29T03:04:29.161Z,0
2017-04-29T03:05:38.155Z,0
2017-04-29T03:06:47.459Z,0
2017-04-29T03:07:57.717Z,0
2017-04-29T03:09:07.986Z,0
2017-04-29T03:10:18.203Z,0
2017-04-29T03:11:27.810Z,0
2017-04-29T03:12:37.735Z,0
2017-04-29T03:13:47.951Z,0
2017-04-29T03:14:57.859Z,0
2017-04-29T03:16:08.094Z,0
2017-04-29T03:17:17.396Z,0
2017-04-29T03:18:27.034Z,0
2017-04-29T03:19:36.943Z,0
2017-04-29T03:20:48.215Z,0
2017-04-29T03:21:57.515Z,0
2017-04-29T03:23:07.427Z,0
2017-04-29T03:24:17.662Z,0
2017-04-29T03:25:27.875Z,0
2017-04-29T03:26:38.533Z,0
2017-04-29T03:27:48.150Z,0
2017-04-29T03:28:58.368Z,0
2017-04-29T03:30:08.293Z,0
2017-04-29T03:31:17.892Z,0
2017-04-29T03:32:27.822Z,0
2017-04-29T03:33:37.441Z,0
2017-04-29T03:34:47.347Z,0
2017-04-29T03:35:57.271Z,0
2017-04-29T03:37:07.487Z,0
2017-04-29T03:38:18.000Z,0
2017-04-29T03:39:27.625Z,0
2017-04-29T03:40:36.922Z,0
2017-04-29T03:41:47.144Z,0
2017-04-29T03:42:57.393Z,0
2017-04-29T03:44:07.773Z,0
2017-04-29T03:45:18.003Z,0
2017-04-29T03:46:27.604Z,0
2017-04-29T03:47:37.221Z,0
2017-04-29T03:48:47.150Z,0
2017-04-29T03:49:57.932Z,0
2017-04-29T03:51:07.302Z,0
2017-04-29T03:52:17.214Z,0
2017-04-29T03:53:27.122Z,0
2017-04-29T03:54:37.073Z,0
2017-04-29T03:55:47.250Z,0
2017-04-29T03:56:57.166Z,0
2017-04-29T03:58:06.797Z,0
2017-04-29T03:59:16.719Z,0
2017-04-29T04:00:26.640Z,0
2017-04-29T04:01:36.095Z,0
2017-04-29T04:02:46.006Z,0
2017-04-29T04:03:55.925Z,0
2017-04-29T04:05:05.844Z,0
2017-04-29T04:06:15.448Z,0
2017-04-29T04:07:25.609Z,0
2017-04-29T04:08:35.827Z,0
2017-04-29T04:09:46.044Z,0
2017-04-29T04:10:55.973Z,0
2017-04-29T04:12:05.589Z,0
2017-04-29T04:13:15.986Z,0
2017-04-29T04:14:26.211Z,0
2017-04-29T04:15:36.126Z,0
2017-04-29T04:16:46.338Z,0
2017-04-29T04:17:56.559Z,0
2017-04-29T04:19:06.818Z,0
2017-04-29T04:20:16.748Z,0
2017-04-29T04:21:26.969Z,0
2017-04-29T04:22:36.902Z,0
2017-04-29T04:23:47.132Z,0
2017-04-29T04:24:57.039Z,0
2017-04-29T04:26:06.647Z,0
2017-04-29T04:27:16.881Z,0
2017-04-29T04:28:26.869Z,0
2017-04-29T04:29:36.481Z,0
2017-04-29T04:30:46.803Z,0
2017-04-29T04:31:57.015Z,0
2017-04-29T04:33:07.248Z,0
2017-04-29T04:34:17.172Z,0
2017-04-29T04:35:26.778Z,0
2017-04-29T04:36:37.130Z,5
2017-04-29T04:37:47.041Z,5
2017-04-29T04:38:57.271Z,5
2017-04-29T04:40:07.502Z,5
2017-04-29T04:41:17.412Z,5
2017-04-29T04:42:27.701Z,5
2017-04-29T04:43:37.625Z,5
2017-04-29T04:44:47.848Z,5
2017-04-29T04:45:58.095Z,10
2017-04-29T04:47:07.399Z,10
2017-04-29T04:48:17.005Z,10
2017-04-29T04:49:27.231Z,10
2017-04-29T04:50:37.457Z,10
2017-04-29T04:51:47.404Z,10
2017-04-29T04:52:57.637Z,10
2017-04-29T04:54:07.607Z,10
2017-04-29T04:55:17.524Z,15
2017-04-29T04:56:27.131Z,15
2017-04-29T04:57:37.053Z,15
2017-04-29T04:58:46.658Z,15
2017-04-29T04:59:56.828Z,15
2017-04-29T05:01:06.764Z,10
2017-04-29T05:02:16.702Z,10
2017-04-29T05:03:26.609Z,15
2017-04-29T05:04:36.218Z,10
2017-04-29T05:05:46.142Z,10
2017-04-29T05:06:56.078Z,15
2017-04-29T05:08:06.010Z,15
2017-04-29T05:09:16.232Z,15
2017-04-29T05:10:26.454Z,20
2017-04-29T05:11:36.129Z,20
2017-04-29T05:12:46.386Z,25
2017-04-29T05:13:56.315Z,50
2017-04-29T05:15:06.236Z,40
2017-04-29T05:16:15.885Z,40
2017-04-29T05:17:26.216Z,70
2017-04-29T05:18:36.139Z,55
2017-04-29T05:19:45.756Z,50
2017-04-29T05:20:55.677Z,55
2017-04-29T05:22:05.287Z,55
2017-04-29T05:23:15.459Z,65
2017-04-29T05:24:25.688Z,55
2017-04-29T05:25:35.289Z,60
2017-04-29T05:26:44.888Z,70
2017-04-29T05:27:55.117Z,135
2017-04-29T05:29:05.184Z,140
2017-04-29T05:30:14.789Z,345
2017-04-29T05:31:24.708Z,350
2017-04-29T05:32:34.652Z,350
2017-04-29T05:33:44.880Z,220
2017-04-29T05:34:54.297Z,300
2017-04-29T05:36:04.532Z,340
2017-04-29T05:37:15.166Z,355
2017-04-29T05:38:24.471Z,55
2017-04-29T05:39:34.401Z,55
2017-04-29T05:40:44.657Z,55
2017-04-29T05:41:54.565Z,60
2017-04-29T05:43:04.796Z,425
2017-04-29T05:44:14.091Z,435
2017-04-29T05:45:24.004Z,465
2017-04-29T05:46:34.372Z,510
2017-04-29T05:47:44.591Z,480
2017-04-29T05:48:54.847Z,490
2017-04-29T05:50:05.073Z,515
2017-04-29T05:51:14.986Z,505
2017-04-29T05:52:24.851Z,505
2017-04-29T05:53:35.077Z,525
2017-04-29T05:54:44.997Z,525
2017-04-29T05:55:54.922Z,480
2017-04-29T05:57:05.138Z,445
2017-04-29T05:58:15.615Z,485
2017-04-29T05:59:25.216Z,495
2017-04-29T06:00:35.469Z,525
2017-04-29T06:01:45.391Z,570
2017-04-29T06:02:55.625Z,555
2017-04-29T06:04:05.497Z,515
2017-04-29T06:05:15.740Z,525
2017-04-29T06:06:25.961Z,560
2017-04-29T06:07:35.282Z,620
2017-04-29T06:08:44.893Z,630
2017-04-29T06:09:55.278Z,635
2017-04-29T06:11:05.509Z,635
2017-04-29T06:12:15.442Z,415
2017-04-29T06:13:25.084Z,130
2017-04-29T06:14:35.094Z,115
2017-04-29T06:15:44.960Z,120
2017-04-29T06:16:54.883Z,115
2017-04-29T06:18:05.107Z,120
2017-04-29T06:19:15.375Z,120
2017-04-29T06:20:25.000Z,125
2017-04-29T06:21:35.118Z,130
2017-04-29T06:22:44.734Z,120
2017-04-29T06:23:54.971Z,110
2017-04-29T06:25:04.913Z,105
2017-04-29T06:26:14.859Z,105
2017-04-29T06:27:25.332Z,100
2017-04-29T06:28:35.249Z,100
2017-04-29T06:29:45.174Z,100
2017-04-29T06:30:55.119Z,95
2017-04-29T06:32:05.048Z,100
2017-04-29T06:33:14.839Z,105
2017-04-29T06:34:25.062Z,120
2017-04-29T06:35:34.673Z,135
2017-04-29T06:36:44.607Z,135
2017-04-29T06:37:54.520Z,120
2017-04-29T06:39:04.782Z,110
2017-04-29T06:40:14.693Z,100
2017-04-29T06:41:24.905Z,95
2017-04-29T06:42:34.203Z,85
2017-04-29T06:43:43.824Z,85
2017-04-29T06:44:54.096Z,90
2017-04-29T06:46:04.057Z,85
2017-04-29T06:47:13.978Z,90
2017-04-29T06:48:23.594Z,95
2017-04-29T06:49:33.823Z,100
2017-04-29T06:50:43.573Z,100
2017-04-29T06:51:53.798Z,100
2017-04-29T06:53:04.033Z,95
2017-04-29T06:54:13.643Z,95
2017-04-29T06:55:23.890Z,90
2017-04-29T06:56:34.070Z,85
2017-04-29T06:57:44.007Z,80
2017-04-29T06:58:53.967Z,85
2017-04-29T07:00:04.196Z,75
2017-04-29T07:01:14.104Z,75
2017-04-29T07:02:24.258Z,80
2017-04-29T07:03:33.874Z,90
2017-04-29T07:04:43.514Z,90
2017-04-29T07:05:53.133Z,90
2017-04-29T07:07:02.741Z,95
2017-04-29T07:08:12.702Z,90
2017-04-29T07:09:22.316Z,85
2017-04-29T07:10:31.641Z,80
2017-04-29T07:11:41.887Z,80
2017-04-29T07:12:51.494Z,75
2017-04-29T07:14:02.022Z,85
2017-04-29T07:15:11.930Z,100
2017-04-29T07:16:21.545Z,95
2017-04-29T07:17:31.467Z,105
2017-04-29T07:18:41.384Z,115
2017-04-29T07:19:51.593Z,185
2017-04-29T07:21:01.192Z,265
2017-04-29T07:22:11.123Z,80
2017-04-29T07:23:20.761Z,555
2017-04-29T07:24:30.699Z,30
2017-04-29T07:25:40.927Z,35
2017-04-29T07:26:51.171Z,40
2017-04-29T07:28:00.809Z,40
2017-04-29T07:29:10.127Z,50
2017-04-29T07:30:19.737Z,75
2017-04-29T07:31:29.960Z,805
2017-04-29T07:32:39.869Z,815
2017-04-29T07:33:49.805Z,500
2017-04-29T07:34:59.754Z,755
2017-04-29T07:36:09.672Z,800
2017-04-29T07:37:19.883Z,790
2017-04-29T07:38:29.801Z,765
2017-04-29T07:39:39.709Z,835
2017-04-29T07:40:49.931Z,890
2017-04-29T07:42:00.156Z,960
2017-04-29T07:43:10.212Z,955
2017-04-29T07:44:19.831Z,925
2017-04-29T07:45:30.125Z,1055
2017-04-29T07:46:40.349Z,1000
2017-04-29T07:47:50.584Z,940
2017-04-29T07:49:00.609Z,900
2017-04-29T07:50:10.223Z,740
2017-04-29T07:51:20.143Z,815
2017-04-29T07:52:29.752Z,760
2017-04-29T07:53:39.681Z,735
2017-04-29T07:54:49.954Z,910
2017-04-29T07:55:59.869Z,1020
2017-04-29T07:57:09.792Z,785
2017-04-29T07:58:19.447Z,1005
2017-04-29T07:59:29.370Z,780
2017-04-29T08:00:39.037Z,410
2017-04-29T08:01:48.662Z,100
2017-04-29T08:02:58.585Z,60
2017-04-29T08:04:08.197Z,45
2017-04-29T08:05:17.511Z,40
2017-04-29T08:06:27.688Z,45
2017-04-29T08:07:37.312Z,50
2017-04-29T08:08:47.248Z,40
2017-04-29T08:09:56.566Z,40
2017-04-29T08:11:06.191Z,45
2017-04-29T08:12:16.213Z,50
2017-04-29T08:13:26.463Z,55
2017-04-29T08:14:36.417Z,205
2017-04-29T08:15:46.111Z,120
2017-04-29T08:16:55.734Z,100
2017-04-29T08:18:05.608Z,65
2017-04-29T08:19:15.519Z,95
2017-04-29T08:20:25.427Z,1195
2017-04-29T08:21:35.055Z,1135
2017-04-29T08:22:44.968Z,150
2017-04-29T08:23:55.000Z,75
2017-04-29T08:25:04.926Z,70
2017-04-29T08:26:15.146Z,65
2017-04-29T08:27:24.755Z,70
2017-04-29T08:28:34.992Z,75
2017-04-29T08:29:44.757Z,70
2017-04-29T08:30:54.378Z,70
2017-04-29T08:32:04.291Z,65
2017-04-29T08:33:13.900Z,60
2017-04-29T08:34:23.828Z,60
2017-04-29T08:35:33.752Z,60
2017-04-29T08:36:43.975Z,55
2017-04-29T08:37:54.228Z,55
2017-04-29T08:39:04.182Z,55
2017-04-29T08:40:14.431Z,55
2017-04-29T08:41:24.945Z,65
2017-04-29T08:42:34.863Z,90
2017-04-29T08:43:43.880Z,135
2017-04-29T08:44:53.810Z,150
2017-04-29T08:46:03.434Z,120
2017-04-29T08:47:13.349Z,85
2017-04-29T08:48:22.972Z,70
2017-04-29T08:49:32.578Z,75
2017-04-29T08:50:42.496Z,90
2017-04-29T08:51:52.725Z,85
2017-04-29T08:53:02.694Z,80
2017-04-29T08:54:12.307Z,80
2017-04-29T08:55:22.256Z,75
2017-04-29T08:56:32.203Z,65
2017-04-29T08:57:42.149Z,65
2017-04-29T08:58:52.169Z,65
2017-04-29T09:00:02.089Z,65
2017-04-29T09:01:12.004Z,65
2017-04-29T09:02:22.268Z,70
2017-04-29T09:03:32.178Z,75
2017-04-29T09:04:41.938Z,80
2017-04-29T09:05:51.904Z,85
2017-04-29T09:07:02.519Z,90
2017-04-29T09:08:11.841Z,90
2017-04-29T09:09:21.158Z,95
2017-04-29T09:10:31.058Z,95
2017-04-29T09:11:40.971Z,95
2017-04-29T09:12:51.213Z,90
2017-04-29T09:14:01.137Z,90
2017-04-29T09:15:11.067Z,90
2017-04-29T09:16:21.247Z,90
2017-04-29T09:17:30.866Z,85
2017-04-29T09:18:40.174Z,75
2017-04-29T09:19:50.412Z,70
2017-04-29T09:21:00.388Z,60
2017-04-29T09:22:10.301Z,50
2017-04-29T09:23:20.536Z,50
2017-04-29T09:24:30.176Z,45
2017-04-29T09:25:39.802Z,45
2017-04-29T09:26:49.743Z,45
2017-04-29T09:27:59.922Z,45
2017-04-29T09:29:09.840Z,45
2017-04-29T09:30:19.767Z,45
2017-04-29T09:31:29.996Z,50
2017-04-29T09:32:39.317Z,55
2017-04-29T09:33:49.097Z,55
2017-04-29T09:34:59.026Z,55
2017-04-29T09:36:08.947Z,55
2017-04-29T09:37:18.860Z,60
2017-04-29T09:38:28.172Z,60
2017-04-29T09:39:38.645Z,65
2017-04-29T09:40:48.864Z,65
2017-04-29T09:41:59.093Z,65
2017-04-29T09:43:09.017Z,65
2017-04-29T09:44:19.246Z,65
2017-04-29T09:45:29.107Z,70
2017-04-29T09:46:39.021Z,70
2017-04-29T09:47:48.639Z,75
2017-04-29T09:48:58.562Z,75
2017-04-29T09:50:08.488Z,75
2017-04-29T09:51:18.339Z,75
2017-04-29T09:52:28.271Z,75
2017-04-29T09:53:38.201Z,80
2017-04-29T09:54:48.416Z,75
2017-04-29T09:55:58.047Z,75
2017-04-29T09:57:08.338Z,80
2017-04-29T09:58:18.263Z,85
2017-04-29T09:59:27.910Z,85
2017-04-29T10:00:37.832Z,90
2017-04-29T10:01:47.435Z,80
2017-04-29T10:02:57.960Z,70
2017-04-29T10:04:07.573Z,65
2017-04-29T10:05:17.169Z,65
2017-04-29T10:06:27.132Z,65
2017-04-29T10:07:36.439Z,65
2017-04-29T10:08:46.303Z,60
2017-04-29T10:09:56.220Z,60
2017-04-29T10:11:05.843Z,60
2017-04-29T10:12:16.067Z,60
2017-04-29T10:13:25.991Z,60
2017-04-29T10:14:36.264Z,55
2017-04-29T10:15:45.871Z,55
2017-04-29T10:16:55.486Z,60
2017-04-29T10:18:06.079Z,60
2017-04-29T10:19:16.006Z,60
2017-04-29T10:20:26.524Z,65
2017-04-29T10:21:36.449Z,70
2017-04-29T10:22:46.390Z,70
2017-04-29T10:23:56.656Z,70
2017-04-29T10:25:06.884Z,70
2017-04-29T10:26:17.127Z,65
2017-04-29T10:27:27.077Z,65
2017-04-29T10:28:37.007Z,65
2017-04-29T10:29:46.297Z,65
2017-04-29T10:30:56.519Z,65
2017-04-29T10:32:06.992Z,60
2017-04-29T10:33:16.904Z,55
2017-04-29T10:34:27.140Z,55
2017-04-29T10:35:37.059Z,55
2017-04-29T10:36:47.278Z,55
2017-04-29T10:37:57.655Z,55
2017-04-29T10:39:07.874Z,55
2017-04-29T10:40:17.869Z,55
2017-04-29T10:41:28.137Z,50
2017-04-29T10:42:38.741Z,50
2017-04-29T10:43:48.649Z,50
2017-04-29T10:44:58.894Z,50
2017-04-29T10:46:09.115Z,55
2017-04-29T10:47:19.017Z,60
2017-04-29T10:48:29.235Z,65
2017-04-29T10:49:39.611Z,70
2017-04-29T10:50:49.665Z,70
2017-04-29T10:51:59.804Z,75
2017-04-29T10:53:10.038Z,75
2017-04-29T10:54:19.641Z,75
2017-04-29T10:55:29.360Z,80
2017-04-29T10:56:39.323Z,80
2017-04-29T10:57:48.936Z,75
2017-04-29T10:58:58.850Z,75
2017-04-29T11:00:08.472Z,70
2017-04-29T11:01:18.202Z,65
2017-04-29T11:02:28.465Z,65
2017-04-29T11:03:38.712Z,65
2017-04-29T11:04:48.638Z,65
2017-04-29T11:05:58.862Z,65
2017-04-29T11:07:09.124Z,65
2017-04-29T11:08:19.059Z,65
2017-04-29T11:09:28.972Z,65
2017-04-29T11:10:38.883Z,65
2017-04-29T11:11:48.793Z,70
2017-04-29T11:12:58.798Z,75
2017-04-29T11:14:08.719Z,80
2017-04-29T11:15:18.654Z,80
2017-04-29T11:16:28.880Z,80
2017-04-29T11:17:38.793Z,75
2017-04-29T11:18:49.018Z,75
2017-04-29T11:19:58.634Z,75
2017-04-29T11:21:08.857Z,70
2017-04-29T11:22:19.080Z,65
2017-04-29T11:23:29.032Z,65
2017-04-29T11:24:39.222Z,60
2017-04-29T11:25:49.505Z,60
2017-04-29T11:26:59.460Z,55
2017-04-29T11:28:09.100Z,55
2017-04-29T11:29:19.094Z,55
2017-04-29T11:30:29.286Z,60
2017-04-29T11:31:38.886Z,55
2017-04-29T11:32:48.807Z,55
2017-04-29T11:33:58.730Z,55
2017-04-29T11:35:08.958Z,55
2017-04-29T11:36:18.813Z,60
2017-04-29T11:37:28.728Z,60
2017-04-29T11:38:38.942Z,60
2017-04-29T11:39:48.245Z,65
2017-04-29T11:40:58.460Z,65
2017-04-29T11:42:08.327Z,65
2017-04-29T11:43:18.247Z,65
2017-04-29T11:44:27.869Z,65
2017-04-29T11:45:38.097Z,60
2017-04-29T11:46:48.081Z,55
2017-04-29T11:47:57.683Z,55
2017-04-29T11:49:07.602Z,55
2017-04-29T11:50:17.210Z,55
2017-04-29T11:51:27.444Z,55
2017-04-29T11:52:37.673Z,55
2017-04-29T11:53:48.053Z,55
2017-04-29T11:54:57.965Z,50
2017-04-29T11:56:08.192Z,50
2017-04-29T11:57:17.805Z,50
2017-04-29T11:58:27.129Z,50
2017-04-29T11:59:37.198Z,45
2017-04-29T12:00:47.117Z,50
2017-04-29T12:01:56.741Z,45
2017-04-29T12:03:06.896Z,40
2017-04-29T12:04:17.140Z,40
2017-04-29T12:05:27.711Z,40
2017-04-29T12:06:37.679Z,40
2017-04-29T12:07:47.624Z,40
2017-04-29T12:08:57.631Z,35
2017-04-29T12:10:07.404Z,35
2017-04-29T12:11:17.660Z,35
2017-04-29T12:12:27.584Z,35
2017-04-29T12:13:37.512Z,35
2017-04-29T12:14:47.767Z,35
2017-04-29T12:15:57.734Z,35
2017-04-29T12:17:07.853Z,40
2017-04-29T12:18:17.813Z,40
2017-04-29T12:19:28.431Z,40
2017-04-29T12:20:38.076Z,45
2017-04-29T12:21:48.054Z,50
2017-04-29T12:22:58.099Z,50
2017-04-29T12:24:08.349Z,55
2017-04-29T12:25:18.268Z,55
2017-04-29T12:26:27.888Z,55
2017-04-29T12:27:38.124Z,50
2017-04-29T12:28:48.349Z,50
2017-04-29T12:29:58.584Z,50
2017-04-29T12:31:08.512Z,45
2017-04-29T12:32:18.803Z,50
2017-04-29T12:33:28.739Z,50
2017-04-29T12:34:38.964Z,50
2017-04-29T12:35:49.178Z,50
2017-04-29T12:36:59.096Z,50
2017-04-29T12:38:09.314Z,50
2017-04-29T12:39:18.952Z,50
2017-04-29T12:40:29.135Z,45
2017-04-29T12:41:39.064Z,50
2017-04-29T12:42:48.990Z,50
2017-04-29T12:43:58.928Z,50
2017-04-29T12:45:08.903Z,50
2017-04-29T12:46:19.446Z,50
2017-04-29T12:47:29.382Z,50
2017-04-29T12:48:39.295Z,50
2017-04-29T12:49:49.526Z,50
2017-04-29T12:50:59.751Z,45
2017-04-29T12:52:09.507Z,45
2017-04-29T12:53:19.434Z,45
2017-04-29T12:54:29.387Z,45
2017-04-29T12:55:39.000Z,45
2017-04-29T12:56:49.229Z,40
2017-04-29T12:57:59.314Z,40
2017-04-29T12:59:09.537Z,40
2017-04-29T13:00:19.450Z,40
2017-04-29T13:01:29.362Z,40
2017-04-29T13:02:38.682Z,35
2017-04-29T13:03:49.157Z,35
2017-04-29T13:04:59.089Z,35
2017-04-29T13:06:08.705Z,35
2017-04-29T13:07:18.319Z,35
2017-04-29T13:08:27.927Z,35
2017-04-29T13:09:38.146Z,35
2017-04-29T13:10:48.071Z,35
2017-04-29T13:11:58.288Z,35
2017-04-29T13:13:08.215Z,35
2017-04-29T13:14:17.522Z,35
2017-04-29T13:15:27.485Z,35
2017-04-29T13:16:37.391Z,35
2017-04-29T13:17:47.651Z,35
2017-04-29T13:18:57.870Z,35
2017-04-29T13:20:08.099Z,35
2017-04-29T13:21:18.243Z,35
2017-04-29T13:22:28.156Z,30
2017-04-29T13:23:38.070Z,30
2017-04-29T13:24:47.991Z,30
2017-04-29T13:25:57.914Z,30
2017-04-29T13:27:07.785Z,30
2017-04-29T13:28:17.400Z,30
2017-04-29T13:29:27.632Z,30
2017-04-29T13:30:36.958Z,30
2017-04-29T13:31:47.199Z,30
2017-04-29T13:32:57.270Z,30
2017-04-29T13:34:06.905Z,30
2017-04-29T13:35:16.814Z,30
2017-04-29T13:36:26.750Z,30
2017-04-29T13:37:36.663Z,30
2017-04-29T13:38:47.156Z,35
2017-04-29T13:39:56.781Z,35
2017-04-29T13:41:06.407Z,30
2017-04-29T13:42:16.036Z,30
2017-04-29T13:43:25.966Z,30
2017-04-29T13:44:36.056Z,30
2017-04-29T13:45:45.976Z,30
2017-04-29T13:46:55.913Z,30
2017-04-29T13:48:05.881Z,30
2017-04-29T13:49:15.817Z,30
2017-04-29T13:50:25.999Z,30
2017-04-29T13:51:35.922Z,30
2017-04-29T13:52:46.227Z,30
2017-04-29T13:53:56.474Z,30
2017-04-29T13:55:06.783Z,30
2017-04-29T13:56:16.405Z,30
2017-04-29T13:57:26.330Z,30
2017-04-29T13:58:35.989Z,30
2017-04-29T13:59:45.602Z,30
2017-04-29T14:00:55.828Z,30
2017-04-29T14:02:05.903Z,30
2017-04-29T14:03:15.842Z,30
2017-04-29T14:04:26.083Z,30
2017-04-29T14:05:36.311Z,30
2017-04-29T14:06:45.920Z,30
2017-04-29T14:07:56.267Z,30
2017-04-29T14:09:06.521Z,30
2017-04-29T14:10:16.781Z,30
2017-04-29T14:11:25.803Z,25
2017-04-29T14:12:35.122Z,25
2017-04-29T14:13:45.696Z,30
2017-04-29T14:14:55.328Z,30
2017-04-29T14:16:04.354Z,30
2017-04-29T14:17:14.282Z,30
2017-04-29T14:18:23.905Z,30
2017-04-29T14:19:33.937Z,30
2017-04-29T14:20:43.842Z,30
2017-04-29T14:21:54.099Z,25
2017-04-29T14:23:04.029Z,25
2017-04-29T14:24:13.663Z,25
2017-04-29T14:25:23.934Z,25
2017-04-29T14:26:34.157Z,25
2017-04-29T14:27:44.084Z,25
2017-04-29T14:28:54.309Z,25
2017-04-29T14:30:04.257Z,25
2017-04-29T14:31:14.513Z,25
2017-04-29T14:32:24.746Z,25
2017-04-29T14:33:34.968Z,25
2017-04-29T14:34:45.196Z,25
2017-04-29T14:35:55.108Z,25
2017-04-29T14:37:05.200Z,20
2017-04-29T14:38:14.831Z,20
2017-04-29T14:39:24.749Z,20
2017-04-29T14:40:34.983Z,20
2017-04-29T14:41:44.897Z,20
2017-04-29T14:42:55.229Z,25
2017-04-29T14:44:05.141Z,20
2017-04-29T14:45:14.748Z,20
2017-04-29T14:46:24.670Z,20
2017-04-29T14:47:34.896Z,20
2017-04-29T14:48:45.268Z,20
2017-04-29T14:49:55.501Z,20
2017-04-29T14:51:05.413Z,20
2017-04-29T14:52:15.026Z,20
2017-04-29T14:53:24.046Z,20
2017-04-29T14:54:34.333Z,20
2017-04-29T14:55:44.562Z,20
2017-04-29T14:56:54.485Z,20
2017-04-29T14:58:03.791Z,20
2017-04-29T14:59:13.715Z,20
2017-04-29T15:00:23.890Z,20
2017-04-29T15:01:33.511Z,20
2017-04-29T15:02:43.122Z,20
2017-04-29T15:03:53.355Z,20
2017-04-29T15:05:03.289Z,20
2017-04-29T15:06:13.867Z,20
2017-04-29T15:07:24.095Z,20
2017-04-29T15:08:34.015Z,20
2017-04-29T15:09:43.944Z,20
2017-04-29T15:10:53.559Z,25
2017-04-29T15:12:03.618Z,25
2017-04-29T15:13:13.864Z,25
2017-04-29T15:14:23.797Z,20
2017-04-29T15:15:34.018Z,20
2017-04-29T15:16:43.937Z,25
2017-04-29T15:17:54.104Z,25
2017-04-29T15:19:04.042Z,25
2017-04-29T15:20:13.965Z,25
2017-04-29T15:21:23.570Z,25
2017-04-29T15:22:33.489Z,25
2017-04-29T15:23:43.455Z,25
2017-04-29T15:24:53.057Z,25
2017-04-29T15:26:02.987Z,25
2017-04-29T15:27:12.625Z,25
2017-04-29T15:28:22.848Z,25
2017-04-29T15:29:32.618Z,25
2017-04-29T15:30:42.269Z,25
2017-04-29T15:31:52.265Z,25
2017-04-29T15:33:02.587Z,25
2017-04-29T15:34:12.501Z,25
2017-04-29T15:35:22.563Z,25
2017-04-29T15:36:32.224Z,25
2017-04-29T15:37:42.136Z,25
2017-04-29T15:38:52.053Z,25
2017-04-29T15:40:01.967Z,25
2017-04-29T15:41:12.443Z,25
2017-04-29T15:42:22.356Z,25
2017-04-29T15:43:32.283Z,25
2017-04-29T15:44:41.893Z,25
2017-04-29T15:45:51.506Z,25
2017-04-29T15:47:01.226Z,25
2017-04-29T15:48:11.142Z,25
2017-04-29T15:49:21.062Z,25
2017-04-29T15:50:30.677Z,25
2017-04-29T15:51:39.979Z,25
2017-04-29T15:52:50.157Z,25
2017-04-29T15:53:59.777Z,25
2017-04-29T15:55:10.000Z,25
2017-04-29T15:56:20.237Z,25
2017-04-29T15:57:30.156Z,25
2017-04-29T15:58:40.174Z,25
2017-04-29T15:59:49.469Z,25
2017-04-29T16:00:58.774Z,25
2017-04-29T16:02:08.385Z,25
2017-04-29T16:03:18.000Z,25
2017-04-29T16:04:28.564Z,25
2017-04-29T16:05:38.474Z,25
2017-04-29T16:06:48.705Z,25
2017-04-29T16:07:58.952Z,25
2017-04-29T16:09:08.890Z,25
2017-04-29T16:10:17.987Z,25
2017-04-29T16:11:28.216Z,25
2017-04-29T16:12:38.148Z,25
2017-04-29T16:13:48.090Z,25
2017-04-29T16:14:57.712Z,25
2017-04-29T16:16:07.789Z,25
2017-04-29T16:17:17.718Z,25
2017-04-29T16:18:27.387Z,25
2017-04-29T16:19:36.746Z,25
2017-04-29T16:20:46.364Z,25
2017-04-29T16:21:55.834Z,20
2017-04-29T16:23:04.843Z,20
2017-04-29T16:24:15.175Z,20
2017-04-29T16:25:24.491Z,20
2017-04-29T16:26:34.425Z,20
2017-04-29T16:27:44.492Z,20
2017-04-29T16:28:54.417Z,20
2017-04-29T16:30:04.329Z,20
2017-04-29T16:31:14.236Z,20
2017-04-29T16:32:24.145Z,20
2017-04-29T16:33:34.478Z,20
2017-04-29T16:34:44.104Z,20
2017-04-29T16:35:54.024Z,20
2017-04-29T16:37:04.251Z,20
2017-04-29T16:38:14.179Z,20
2017-04-29T16:39:24.202Z,20
2017-04-29T16:40:33.521Z,20
2017-04-29T16:41:43.757Z,20
2017-04-29T16:42:53.366Z,20